sensor_id;sensor_type;location;lat;lon;timestamp;P1;durP1;ratioP1;P2;durP2;ratioP2
67363;SDS011;54250;45.572;38.086;2023-03-01T00:01:15;6.20;;;3.40;;
67363;SDS011;54250;45.572;38.086;2023-03-01T00:03:43;5.20;;;3.10;;
67363;SDS011;54250;45.572;38.086;2023-03-01T00:06:09;5.10;;;3.47;;
67363;SDS011;54250;45.572;38.086;2023-03-01T00:08:36;9.18;;;4.00;;
67363;SDS011;54250;45.572;38.086;2023-03-01T00:11:06;8.95;;;4.28;;
67363;SDS011;54250;45.572;38.086;2023-03-01T00:13:51;5.35;;;2.85;;
67363;SDS011;54250;45.572;38.086;2023-03-01T00:16:23;7.38;;;3.50;;
67363;SDS011;54250;45.572;38.086;2023-03-01T00:18:51;19.77;;;4.40;;
67363;SDS011;54250;45.572;38.086;2023-03-01T00:21:17;4.03;;;2.90;;
67363;SDS011;54250;45.572;38.086;2023-03-01T00:23:45;5.90;;;4.18;;
67363;SDS011;54250;45.572;38.086;2023-03-01T00:26:12;4.93;;;3.33;;
67363;SDS011;54250;45.572;38.086;2023-03-01T00:28:39;7.63;;;3.30;;
67363;SDS011;54250;45.572;38.086;2023-03-01T00:31:07;13.50;;;3.47;;
67363;SDS011;54250;45.572;38.086;2023-03-01T00:33:37;5.13;;;3.10;;
67363;SDS011;54250;45.572;38.086;2023-03-01T00:36:04;7.10;;;2.90;;
67363;SDS011;54250;45.572;38.086;2023-03-01T00:38:30;3.30;;;2.75;;
67363;SDS011;54250;45.572;38.086;2023-03-01T00:41:04;4.47;;;3.20;;
67363;SDS011;54250;45.572;38.086;2023-03-01T00:43:33;7.10;;;4.38;;
67363;SDS011;54250;45.572;38.086;2023-03-01T00:46:02;6.43;;;3.63;;
67363;SDS011;54250;45.572;38.086;2023-03-01T00:48:33;11.38;;;3.78;;
67363;SDS011;54250;45.572;38.086;2023-03-01T00:51:09;5.93;;;3.67;;
67363;SDS011;54250;45.572;38.086;2023-03-01T00:53:37;4.68;;;2.60;;
67363;SDS011;54250;45.572;38.086;2023-03-01T00:56:03;5.95;;;3.38;;
67363;SDS011;54250;45.572;38.086;2023-03-01T00:58:31;8.70;;;3.95;;
67363;SDS011;54250;45.572;38.086;2023-03-01T01:00:57;4.80;;;3.33;;
67363;SDS011;54250;45.572;38.086;2023-03-01T01:03:23;8.30;;;2.58;;
67363;SDS011;54250;45.572;38.086;2023-03-01T01:05:50;5.15;;;3.45;;
67363;SDS011;54250;45.572;38.086;2023-03-01T01:08:18;4.75;;;3.15;;
67363;SDS011;54250;45.572;38.086;2023-03-01T01:10:45;6.55;;;3.55;;
67363;SDS011;54250;45.572;38.086;2023-03-01T01:13:12;4.47;;;2.60;;
67363;SDS011;54250;45.572;38.086;2023-03-01T01:15:38;3.33;;;2.60;;
67363;SDS011;54250;45.572;38.086;2023-03-01T01:18:05;3.72;;;2.58;;
67363;SDS011;54250;45.572;38.086;2023-03-01T01:20:31;5.95;;;3.60;;
67363;SDS011;54250;45.572;38.086;2023-03-01T01:22:58;8.98;;;2.63;;
67363;SDS011;54250;45.572;38.086;2023-03-01T01:25:24;5.90;;;3.80;;
67363;SDS011;54250;45.572;38.086;2023-03-01T01:27:53;5.72;;;2.13;;
67363;SDS011;54250;45.572;38.086;2023-03-01T01:30:19;2.90;;;2.22;;
67363;SDS011;54250;45.572;38.086;2023-03-01T01:32:45;4.30;;;3.33;;
67363;SDS011;54250;45.572;38.086;2023-03-01T01:35:11;13.63;;;4.57;;
67363;SDS011;54250;45.572;38.086;2023-03-01T01:37:37;3.45;;;2.92;;
67363;SDS011;54250;45.572;38.086;2023-03-01T01:40:03;8.27;;;3.20;;
67363;SDS011;54250;45.572;38.086;2023-03-01T01:42:30;4.15;;;3.03;;
67363;SDS011;54250;45.572;38.086;2023-03-01T01:47:50;4.22;;;2.33;;
67363;SDS011;54250;45.572;38.086;2023-03-01T01:50:17;7.20;;;2.28;;
67363;SDS011;54250;45.572;38.086;2023-03-01T01:52:44;7.25;;;2.85;;
67363;SDS011;54250;45.572;38.086;2023-03-01T01:55:16;7.43;;;3.25;;
67363;SDS011;54250;45.572;38.086;2023-03-01T01:57:57;4.80;;;3.17;;
67363;SDS011;54250;45.572;38.086;2023-03-01T02:00:28;5.15;;;3.28;;
67363;SDS011;54250;45.572;38.086;2023-03-01T02:02:55;5.90;;;3.88;;
67363;SDS011;54250;45.572;38.086;2023-03-01T02:08:15;5.22;;;3.42;;
67363;SDS011;54250;45.572;38.086;2023-03-01T02:10:43;5.50;;;3.72;;
67363;SDS011;54250;45.572;38.086;2023-03-01T02:13:11;6.65;;;3.42;;
67363;SDS011;54250;45.572;38.086;2023-03-01T02:15:38;4.80;;;3.45;;
67363;SDS011;54250;45.572;38.086;2023-03-01T02:18:06;9.20;;;3.70;;
67363;SDS011;54250;45.572;38.086;2023-03-01T02:20:40;7.68;;;3.42;;
67363;SDS011;54250;45.572;38.086;2023-03-01T02:23:17;4.55;;;3.42;;
67363;SDS011;54250;45.572;38.086;2023-03-01T02:28:58;8.55;;;3.78;;
67363;SDS011;54250;45.572;38.086;2023-03-01T02:31:25;8.10;;;4.78;;
67363;SDS011;54250;45.572;38.086;2023-03-01T02:34:16;6.20;;;3.65;;
67363;SDS011;54250;45.572;38.086;2023-03-01T02:36:51;11.68;;;4.13;;
67363;SDS011;54250;45.572;38.086;2023-03-01T02:39:22;9.15;;;2.92;;
67363;SDS011;54250;45.572;38.086;2023-03-01T02:41:52;7.35;;;2.90;;
67363;SDS011;54250;45.572;38.086;2023-03-01T02:44:21;3.45;;;2.47;;
67363;SDS011;54250;45.572;38.086;2023-03-01T02:46:53;7.20;;;4.18;;
67363;SDS011;54250;45.572;38.086;2023-03-01T02:49:25;12.38;;;4.18;;
67363;SDS011;54250;45.572;38.086;2023-03-01T02:52:01;7.28;;;4.70;;
67363;SDS011;54250;45.572;38.086;2023-03-01T02:54:34;9.68;;;5.82;;
67363;SDS011;54250;45.572;38.086;2023-03-01T02:57:09;5.22;;;2.72;;
67363;SDS011;54250;45.572;38.086;2023-03-01T02:59:36;7.78;;;4.35;;
67363;SDS011;54250;45.572;38.086;2023-03-01T03:02:08;5.88;;;3.80;;
67363;SDS011;54250;45.572;38.086;2023-03-01T03:07:44;8.50;;;5.10;;
67363;SDS011;54250;45.572;38.086;2023-03-01T03:10:13;3.92;;;2.88;;
67363;SDS011;54250;45.572;38.086;2023-03-01T03:12:41;12.85;;;5.93;;
67363;SDS011;54250;45.572;38.086;2023-03-01T03:15:09;12.02;;;6.05;;
67363;SDS011;54250;45.572;38.086;2023-03-01T03:17:38;15.93;;;7.40;;
67363;SDS011;54250;45.572;38.086;2023-03-01T03:20:06;16.65;;;5.57;;
67363;SDS011;54250;45.572;38.086;2023-03-01T03:22:37;8.18;;;4.35;;
67363;SDS011;54250;45.572;38.086;2023-03-01T03:25:05;7.50;;;3.95;;
67363;SDS011;54250;45.572;38.086;2023-03-01T03:27:39;16.05;;;7.68;;
67363;SDS011;54250;45.572;38.086;2023-03-01T03:30:09;4.85;;;3.25;;
67363;SDS011;54250;45.572;38.086;2023-03-01T03:32:38;8.35;;;3.83;;
67363;SDS011;54250;45.572;38.086;2023-03-01T03:35:08;6.57;;;3.05;;
67363;SDS011;54250;45.572;38.086;2023-03-01T03:37:36;8.45;;;3.30;;
67363;SDS011;54250;45.572;38.086;2023-03-01T03:40:21;5.10;;;3.45;;
67363;SDS011;54250;45.572;38.086;2023-03-01T03:42:47;4.68;;;3.13;;
67363;SDS011;54250;45.572;38.086;2023-03-01T03:45:13;8.20;;;3.67;;
67363;SDS011;54250;45.572;38.086;2023-03-01T03:47:41;5.45;;;3.90;;
67363;SDS011;54250;45.572;38.086;2023-03-01T03:50:07;19.70;;;4.18;;
67363;SDS011;54250;45.572;38.086;2023-03-01T03:52:34;9.43;;;4.63;;
67363;SDS011;54250;45.572;38.086;2023-03-01T03:55:00;9.60;;;3.85;;
67363;SDS011;54250;45.572;38.086;2023-03-01T03:57:26;7.72;;;3.45;;
67363;SDS011;54250;45.572;38.086;2023-03-01T03:59:52;11.68;;;4.20;;
67363;SDS011;54250;45.572;38.086;2023-03-01T04:02:18;8.88;;;3.95;;
67363;SDS011;54250;45.572;38.086;2023-03-01T04:04:47;15.27;;;4.32;;
67363;SDS011;54250;45.572;38.086;2023-03-01T04:07:16;12.40;;;5.88;;
67363;SDS011;54250;45.572;38.086;2023-03-01T04:09:43;12.15;;;4.25;;
67363;SDS011;54250;45.572;38.086;2023-03-01T04:12:09;6.03;;;3.22;;
67363;SDS011;54250;45.572;38.086;2023-03-01T04:14:35;6.18;;;3.38;;
67363;SDS011;54250;45.572;38.086;2023-03-01T04:17:02;3.42;;;2.35;;
67363;SDS011;54250;45.572;38.086;2023-03-01T04:19:31;5.05;;;3.00;;
67363;SDS011;54250;45.572;38.086;2023-03-01T04:22:04;5.47;;;2.90;;
67363;SDS011;54250;45.572;38.086;2023-03-01T04:24:35;3.72;;;2.60;;
67363;SDS011;54250;45.572;38.086;2023-03-01T04:27:01;1.55;;;0.65;;
67363;SDS011;54250;45.572;38.086;2023-03-01T04:29:27;9.40;;;3.25;;
67363;SDS011;54250;45.572;38.086;2023-03-01T04:31:54;18.13;;;3.50;;
67363;SDS011;54250;45.572;38.086;2023-03-01T04:34:20;4.65;;;2.17;;
67363;SDS011;54250;45.572;38.086;2023-03-01T04:36:46;5.65;;;2.35;;
67363;SDS011;54250;45.572;38.086;2023-03-01T04:39:12;4.88;;;2.85;;
67363;SDS011;54250;45.572;38.086;2023-03-01T04:41:38;9.40;;;4.93;;
67363;SDS011;54250;45.572;38.086;2023-03-01T04:44:05;4.30;;;2.72;;
67363;SDS011;54250;45.572;38.086;2023-03-01T04:46:32;2.22;;;1.83;;
67363;SDS011;54250;45.572;38.086;2023-03-01T04:48:58;4.47;;;2.65;;
67363;SDS011;54250;45.572;38.086;2023-03-01T04:51:24;3.53;;;2.42;;
67363;SDS011;54250;45.572;38.086;2023-03-01T04:53:50;4.90;;;3.10;;
67363;SDS011;54250;45.572;38.086;2023-03-01T04:56:16;6.53;;;2.45;;
67363;SDS011;54250;45.572;38.086;2023-03-01T04:58:45;5.53;;;3.80;;
67363;SDS011;54250;45.572;38.086;2023-03-01T05:01:13;8.15;;;2.92;;
67363;SDS011;54250;45.572;38.086;2023-03-01T05:03:44;3.67;;;2.70;;
67363;SDS011;54250;45.572;38.086;2023-03-01T05:06:14;2.72;;;1.45;;
67363;SDS011;54250;45.572;38.086;2023-03-01T05:08:42;2.60;;;1.08;;
67363;SDS011;54250;45.572;38.086;2023-03-01T05:11:09;2.25;;;1.92;;
67363;SDS011;54250;45.572;38.086;2023-03-01T05:13:36;4.65;;;2.25;;
67363;SDS011;54250;45.572;38.086;2023-03-01T05:16:03;3.15;;;1.88;;
67363;SDS011;54250;45.572;38.086;2023-03-01T05:18:32;4.70;;;2.53;;
67363;SDS011;54250;45.572;38.086;2023-03-01T05:21:06;4.18;;;2.67;;
67363;SDS011;54250;45.572;38.086;2023-03-01T05:23:36;4.00;;;2.30;;
67363;SDS011;54250;45.572;38.086;2023-03-01T05:26:02;2.10;;;1.48;;
67363;SDS011;54250;45.572;38.086;2023-03-01T05:28:31;1.98;;;1.17;;
67363;SDS011;54250;45.572;38.086;2023-03-01T05:30:58;2.60;;;1.65;;
67363;SDS011;54250;45.572;38.086;2023-03-01T05:33:24;1.45;;;1.15;;
67363;SDS011;54250;45.572;38.086;2023-03-01T05:35:51;1.20;;;0.82;;
67363;SDS011;54250;45.572;38.086;2023-03-01T05:38:18;5.38;;;3.35;;
67363;SDS011;54250;45.572;38.086;2023-03-01T05:40:46;2.75;;;1.27;;
67363;SDS011;54250;45.572;38.086;2023-03-01T05:43:14;2.85;;;2.13;;
67363;SDS011;54250;45.572;38.086;2023-03-01T05:45:41;3.78;;;2.67;;
67363;SDS011;54250;45.572;38.086;2023-03-01T05:48:08;3.72;;;2.10;;
67363;SDS011;54250;45.572;38.086;2023-03-01T05:50:36;5.55;;;2.55;;
67363;SDS011;54250;45.572;38.086;2023-03-01T05:53:11;5.45;;;2.92;;
67363;SDS011;54250;45.572;38.086;2023-03-01T05:55:44;1.60;;;1.15;;
67363;SDS011;54250;45.572;38.086;2023-03-01T05:58:13;6.28;;;2.72;;
67363;SDS011;54250;45.572;38.086;2023-03-01T06:00:41;4.07;;;1.90;;
67363;SDS011;54250;45.572;38.086;2023-03-01T06:03:09;3.13;;;2.10;;
67363;SDS011;54250;45.572;38.086;2023-03-01T06:05:36;5.30;;;2.55;;
67363;SDS011;54250;45.572;38.086;2023-03-01T06:08:02;3.30;;;1.23;;
67363;SDS011;54250;45.572;38.086;2023-03-01T06:10:29;4.10;;;2.17;;
67363;SDS011;54250;45.572;38.086;2023-03-01T06:12:55;2.88;;;2.13;;
67363;SDS011;54250;45.572;38.086;2023-03-01T06:15:21;3.53;;;1.80;;
67363;SDS011;54250;45.572;38.086;2023-03-01T06:17:48;1.10;;;0.98;;
67363;SDS011;54250;45.572;38.086;2023-03-01T06:20:19;1.58;;;0.80;;
67363;SDS011;54250;45.572;38.086;2023-03-01T06:22:47;4.28;;;2.40;;
67363;SDS011;54250;45.572;38.086;2023-03-01T06:25:15;5.05;;;1.58;;
67363;SDS011;54250;45.572;38.086;2023-03-01T06:27:43;2.00;;;1.73;;
67363;SDS011;54250;45.572;38.086;2023-03-01T06:30:10;3.70;;;2.08;;
67363;SDS011;54250;45.572;38.086;2023-03-01T06:32:39;4.47;;;2.35;;
67363;SDS011;54250;45.572;38.086;2023-03-01T06:35:12;2.58;;;1.55;;
67363;SDS011;54250;45.572;38.086;2023-03-01T06:37:39;1.13;;;0.80;;
67363;SDS011;54250;45.572;38.086;2023-03-01T06:40:06;7.82;;;2.35;;
67363;SDS011;54250;45.572;38.086;2023-03-01T06:42:37;3.97;;;1.83;;
67363;SDS011;54250;45.572;38.086;2023-03-01T06:45:05;13.32;;;1.80;;
67363;SDS011;54250;45.572;38.086;2023-03-01T06:47:32;3.03;;;1.95;;
67363;SDS011;54250;45.572;38.086;2023-03-01T06:50:02;3.15;;;1.83;;
67363;SDS011;54250;45.572;38.086;2023-03-01T06:52:28;2.83;;;1.60;;
67363;SDS011;54250;45.572;38.086;2023-03-01T06:54:55;7.53;;;1.70;;
67363;SDS011;54250;45.572;38.086;2023-03-01T06:57:21;1.38;;;1.25;;
67363;SDS011;54250;45.572;38.086;2023-03-01T06:59:47;2.33;;;1.48;;
67363;SDS011;54250;45.572;38.086;2023-03-01T07:02:13;5.07;;;2.72;;
67363;SDS011;54250;45.572;38.086;2023-03-01T07:04:40;1.25;;;0.80;;
67363;SDS011;54250;45.572;38.086;2023-03-01T07:07:06;3.65;;;2.28;;
67363;SDS011;54250;45.572;38.086;2023-03-01T07:09:32;3.83;;;2.50;;
67363;SDS011;54250;45.572;38.086;2023-03-01T07:11:58;5.00;;;3.22;;
67363;SDS011;54250;45.572;38.086;2023-03-01T07:14:25;1.90;;;1.55;;
67363;SDS011;54250;45.572;38.086;2023-03-01T07:16:54;3.85;;;1.55;;
67363;SDS011;54250;45.572;38.086;2023-03-01T07:19:21;5.00;;;1.98;;
67363;SDS011;54250;45.572;38.086;2023-03-01T07:21:47;4.60;;;2.00;;
67363;SDS011;54250;45.572;38.086;2023-03-01T07:24:13;4.18;;;1.83;;
67363;SDS011;54250;45.572;38.086;2023-03-01T07:26:40;3.10;;;1.85;;
67363;SDS011;54250;45.572;38.086;2023-03-01T07:29:07;2.75;;;1.73;;
67363;SDS011;54250;45.572;38.086;2023-03-01T07:31:35;1.80;;;1.05;;
67363;SDS011;54250;45.572;38.086;2023-03-01T07:34:02;4.57;;;2.72;;
67363;SDS011;54250;45.572;38.086;2023-03-01T07:36:28;3.33;;;2.22;;
67363;SDS011;54250;45.572;38.086;2023-03-01T07:38:54;1.65;;;1.55;;
67363;SDS011;54250;45.572;38.086;2023-03-01T07:41:21;3.80;;;2.65;;
67363;SDS011;54250;45.572;38.086;2023-03-01T07:43:47;21.13;;;2.60;;
67363;SDS011;54250;45.572;38.086;2023-03-01T07:46:13;9.73;;;2.22;;
67363;SDS011;54250;45.572;38.086;2023-03-01T07:48:39;6.05;;;2.83;;
67363;SDS011;54250;45.572;38.086;2023-03-01T07:51:05;5.25;;;2.97;;
67363;SDS011;54250;45.572;38.086;2023-03-01T07:53:32;3.08;;;1.85;;
67363;SDS011;54250;45.572;38.086;2023-03-01T07:56:09;4.07;;;2.85;;
67363;SDS011;54250;45.572;38.086;2023-03-01T07:58:38;3.42;;;2.58;;
67363;SDS011;54250;45.572;38.086;2023-03-01T08:01:06;8.18;;;3.53;;
67363;SDS011;54250;45.572;38.086;2023-03-01T08:03:37;5.53;;;3.40;;
67363;SDS011;54250;45.572;38.086;2023-03-01T08:06:04;6.00;;;3.85;;
67363;SDS011;54250;45.572;38.086;2023-03-01T08:08:33;6.35;;;3.45;;
67363;SDS011;54250;45.572;38.086;2023-03-01T08:11:00;7.78;;;4.10;;
67363;SDS011;54250;45.572;38.086;2023-03-01T08:13:27;5.45;;;2.83;;
67363;SDS011;54250;45.572;38.086;2023-03-01T08:15:53;11.18;;;4.82;;
67363;SDS011;54250;45.572;38.086;2023-03-01T08:18:20;8.55;;;4.65;;
67363;SDS011;54250;45.572;38.086;2023-03-01T08:20:46;5.75;;;3.30;;
67363;SDS011;54250;45.572;38.086;2023-03-01T08:23:13;6.78;;;4.10;;
67363;SDS011;54250;45.572;38.086;2023-03-01T08:25:39;8.75;;;4.22;;
67363;SDS011;54250;45.572;38.086;2023-03-01T08:28:05;11.30;;;4.63;;
67363;SDS011;54250;45.572;38.086;2023-03-01T08:30:31;9.60;;;4.00;;
67363;SDS011;54250;45.572;38.086;2023-03-01T08:32:57;8.60;;;4.15;;
67363;SDS011;54250;45.572;38.086;2023-03-01T08:35:23;9.85;;;4.22;;
67363;SDS011;54250;45.572;38.086;2023-03-01T08:37:49;28.30;;;5.15;;
67363;SDS011;54250;45.572;38.086;2023-03-01T08:40:15;8.63;;;4.00;;
67363;SDS011;54250;45.572;38.086;2023-03-01T08:42:41;8.48;;;4.70;;
67363;SDS011;54250;45.572;38.086;2023-03-01T08:45:11;8.27;;;4.28;;
67363;SDS011;54250;45.572;38.086;2023-03-01T08:47:39;10.50;;;4.45;;
67363;SDS011;54250;45.572;38.086;2023-03-01T08:50:05;11.40;;;4.57;;
67363;SDS011;54250;45.572;38.086;2023-03-01T08:52:32;14.40;;;5.85;;
67363;SDS011;54250;45.572;38.086;2023-03-01T08:54:59;10.02;;;3.40;;
67363;SDS011;54250;45.572;38.086;2023-03-01T08:57:26;16.90;;;6.63;;
67363;SDS011;54250;45.572;38.086;2023-03-01T08:59:52;9.15;;;4.63;;
67363;SDS011;54250;45.572;38.086;2023-03-01T09:02:21;10.05;;;5.15;;
67363;SDS011;54250;45.572;38.086;2023-03-01T09:04:47;11.05;;;5.40;;
67363;SDS011;54250;45.572;38.086;2023-03-01T09:07:13;20.25;;;7.45;;
67363;SDS011;54250;45.572;38.086;2023-03-01T09:09:39;12.27;;;5.50;;
67363;SDS011;54250;45.572;38.086;2023-03-01T09:12:05;11.40;;;5.38;;
67363;SDS011;54250;45.572;38.086;2023-03-01T09:14:32;11.15;;;5.53;;
67363;SDS011;54250;45.572;38.086;2023-03-01T09:16:58;13.43;;;6.03;;
67363;SDS011;54250;45.572;38.086;2023-03-01T09:19:28;11.35;;;5.53;;
67363;SDS011;54250;45.572;38.086;2023-03-01T09:21:54;11.10;;;4.70;;
67363;SDS011;54250;45.572;38.086;2023-03-01T09:24:21;8.30;;;5.13;;
67363;SDS011;54250;45.572;38.086;2023-03-01T09:26:50;13.32;;;5.40;;
67363;SDS011;54250;45.572;38.086;2023-03-01T09:29:19;12.63;;;5.43;;
67363;SDS011;54250;45.572;38.086;2023-03-01T09:31:45;12.93;;;5.80;;
67363;SDS011;54250;45.572;38.086;2023-03-01T09:34:11;9.95;;;5.75;;
67363;SDS011;54250;45.572;38.086;2023-03-01T09:36:38;10.48;;;6.00;;
67363;SDS011;54250;45.572;38.086;2023-03-01T09:39:04;10.40;;;5.43;;
67363;SDS011;54250;45.572;38.086;2023-03-01T09:44:26;12.93;;;6.00;;
67363;SDS011;54250;45.572;38.086;2023-03-01T09:47:08;7.90;;;4.60;;
67363;SDS011;54250;45.572;38.086;2023-03-01T09:49:40;6.20;;;3.75;;
67363;SDS011;54250;45.572;38.086;2023-03-01T09:52:19;6.68;;;4.53;;
67363;SDS011;54250;45.572;38.086;2023-03-01T09:54:55;13.20;;;6.25;;
67363;SDS011;54250;45.572;38.086;2023-03-01T10:03:16;10.52;;;5.25;;
67363;SDS011;54250;45.572;38.086;2023-03-01T10:06:23;10.35;;;4.18;;
67363;SDS011;54250;45.572;38.086;2023-03-01T10:09:00;8.27;;;4.72;;
67363;SDS011;54250;45.572;38.086;2023-03-01T10:11:32;8.63;;;4.68;;
67363;SDS011;54250;45.572;38.086;2023-03-01T10:14:12;9.73;;;4.78;;
67363;SDS011;54250;45.572;38.086;2023-03-01T10:24:17;10.35;;;5.30;;
67363;SDS011;54250;45.572;38.086;2023-03-01T10:26:56;9.30;;;4.97;;
67363;SDS011;54250;45.572;38.086;2023-03-01T10:29:28;8.20;;;4.65;;
67363;SDS011;54250;45.572;38.086;2023-03-01T10:32:00;7.75;;;3.30;;
67363;SDS011;54250;45.572;38.086;2023-03-01T10:34:29;6.07;;;3.95;;
67363;SDS011;54250;45.572;38.086;2023-03-01T10:36:58;7.53;;;4.13;;
67363;SDS011;54250;45.572;38.086;2023-03-01T10:39:55;12.35;;;6.15;;
67363;SDS011;54250;45.572;38.086;2023-03-01T10:42:30;8.15;;;5.03;;
67363;SDS011;54250;45.572;38.086;2023-03-01T10:44:58;8.57;;;5.05;;
67363;SDS011;54250;45.572;38.086;2023-03-01T10:47:42;9.40;;;4.72;;
67363;SDS011;54250;45.572;38.086;2023-03-01T10:50:18;4.47;;;3.13;;
67363;SDS011;54250;45.572;38.086;2023-03-01T10:52:55;5.38;;;3.30;;
67363;SDS011;54250;45.572;38.086;2023-03-01T10:55:36;6.65;;;3.80;;
67363;SDS011;54250;45.572;38.086;2023-03-01T10:58:08;5.60;;;3.72;;
67363;SDS011;54250;45.572;38.086;2023-03-01T11:01:23;6.15;;;3.03;;
67363;SDS011;54250;45.572;38.086;2023-03-01T11:03:41;10.20;;;4.68;;
67363;SDS011;54250;45.572;38.086;2023-03-01T11:08:37;8.10;;;2.92;;
67363;SDS011;54250;45.572;38.086;2023-03-01T11:11:05;3.85;;;2.92;;
67363;SDS011;54250;45.572;38.086;2023-03-01T11:13:37;8.13;;;4.03;;
67363;SDS011;54250;45.572;38.086;2023-03-01T11:16:36;4.45;;;2.67;;
67363;SDS011;54250;45.572;38.086;2023-03-01T11:21:37;5.68;;;3.47;;
67363;SDS011;54250;45.572;38.086;2023-03-01T11:24:12;5.13;;;2.83;;
67363;SDS011;54250;45.572;38.086;2023-03-01T11:26:41;4.95;;;2.20;;
67363;SDS011;54250;45.572;38.086;2023-03-01T11:32:06;6.65;;;3.50;;
67363;SDS011;54250;45.572;38.086;2023-03-01T11:34:49;14.25;;;4.63;;
67363;SDS011;54250;45.572;38.086;2023-03-01T11:43:04;6.40;;;2.65;;
67363;SDS011;54250;45.572;38.086;2023-03-01T11:45:45;3.10;;;2.45;;
67363;SDS011;54250;45.572;38.086;2023-03-01T11:56:27;5.93;;;2.63;;
67363;SDS011;54250;45.572;38.086;2023-03-01T12:09:49;3.30;;;1.77;;
67363;SDS011;54250;45.572;38.086;2023-03-01T12:12:43;5.30;;;2.25;;
67363;SDS011;54250;45.572;38.086;2023-03-01T12:15:32;3.50;;;2.00;;
67363;SDS011;54250;45.572;38.086;2023-03-01T12:21:10;5.60;;;2.47;;
67363;SDS011;54250;45.572;38.086;2023-03-01T12:26:40;2.63;;;1.67;;
67363;SDS011;54250;45.572;38.086;2023-03-01T12:29:23;5.50;;;2.42;;
67363;SDS011;54250;45.572;38.086;2023-03-01T12:42:54;4.53;;;3.00;;
67363;SDS011;54250;45.572;38.086;2023-03-01T12:51:40;7.75;;;3.92;;
67363;SDS011;54250;45.572;38.086;2023-03-01T12:54:16;3.90;;;2.45;;
67363;SDS011;54250;45.572;38.086;2023-03-01T12:56:50;11.30;;;4.60;;
67363;SDS011;54250;45.572;38.086;2023-03-01T13:02:10;6.93;;;2.67;;
67363;SDS011;54250;45.572;38.086;2023-03-01T13:05:19;2.50;;;1.40;;
67363;SDS011;54250;45.572;38.086;2023-03-01T13:08:16;6.55;;;2.63;;
67363;SDS011;54250;45.572;38.086;2023-03-01T13:10:55;6.68;;;2.83;;
67363;SDS011;54250;45.572;38.086;2023-03-01T13:13:26;9.10;;;3.15;;
67363;SDS011;54250;45.572;38.086;2023-03-01T13:15:53;11.35;;;4.88;;
67363;SDS011;54250;45.572;38.086;2023-03-01T13:20:51;10.05;;;3.60;;
67363;SDS011;54250;45.572;38.086;2023-03-01T13:31:11;4.85;;;2.75;;
67363;SDS011;54250;45.572;38.086;2023-03-01T13:33:59;5.80;;;2.45;;
67363;SDS011;54250;45.572;38.086;2023-03-01T13:41:58;5.50;;;2.92;;
67363;SDS011;54250;45.572;38.086;2023-03-01T13:44:37;6.32;;;2.85;;
67363;SDS011;54250;45.572;38.086;2023-03-01T13:55:03;2.38;;;1.63;;
67363;SDS011;54250;45.572;38.086;2023-03-01T13:57:36;13.65;;;3.63;;
67363;SDS011;54250;45.572;38.086;2023-03-01T14:00:06;3.08;;;2.10;;
67363;SDS011;54250;45.572;38.086;2023-03-01T14:03:10;2.03;;;1.50;;
67363;SDS011;54250;45.572;38.086;2023-03-01T14:06:05;4.47;;;2.17;;
67363;SDS011;54250;45.572;38.086;2023-03-01T14:08:50;2.55;;;1.75;;
67363;SDS011;54250;45.572;38.086;2023-03-01T14:11:49;3.55;;;2.00;;
67363;SDS011;54250;45.572;38.086;2023-03-01T14:19:33;5.25;;;2.22;;
67363;SDS011;54250;45.572;38.086;2023-03-01T14:24:51;4.80;;;1.85;;
67363;SDS011;54250;45.572;38.086;2023-03-01T14:27:21;2.83;;;1.38;;
67363;SDS011;54250;45.572;38.086;2023-03-01T14:29:58;1.75;;;1.20;;
67363;SDS011;54250;45.572;38.086;2023-03-01T14:32:27;2.33;;;2.10;;
67363;SDS011;54250;45.572;38.086;2023-03-01T14:34:54;2.75;;;1.80;;
67363;SDS011;54250;45.572;38.086;2023-03-01T14:39:56;4.03;;;2.78;;
67363;SDS011;54250;45.572;38.086;2023-03-01T14:42:25;3.28;;;1.27;;
67363;SDS011;54250;45.572;38.086;2023-03-01T14:44:55;3.22;;;2.38;;
67363;SDS011;54250;45.572;38.086;2023-03-01T14:47:26;3.70;;;1.80;;
67363;SDS011;54250;45.572;38.086;2023-03-01T14:50:01;4.35;;;2.47;;
67363;SDS011;54250;45.572;38.086;2023-03-01T14:52:36;2.53;;;2.00;;
67363;SDS011;54250;45.572;38.086;2023-03-01T14:55:13;4.53;;;2.25;;
67363;SDS011;54250;45.572;38.086;2023-03-01T14:57:44;6.40;;;4.25;;
67363;SDS011;54250;45.572;38.086;2023-03-01T15:00:17;5.75;;;3.63;;
67363;SDS011;54250;45.572;38.086;2023-03-01T15:02:44;2.85;;;1.88;;
67363;SDS011;54250;45.572;38.086;2023-03-01T15:05:13;3.72;;;2.28;;
67363;SDS011;54250;45.572;38.086;2023-03-01T15:07:41;13.68;;;6.65;;
67363;SDS011;54250;45.572;38.086;2023-03-01T15:10:22;9.65;;;4.15;;
67363;SDS011;54250;45.572;38.086;2023-03-01T15:12:52;3.58;;;3.28;;
67363;SDS011;54250;45.572;38.086;2023-03-01T15:18:15;6.00;;;3.65;;
67363;SDS011;54250;45.572;38.086;2023-03-01T15:20:52;5.05;;;2.92;;
67363;SDS011;54250;45.572;38.086;2023-03-01T15:23:23;2.50;;;1.67;;
67363;SDS011;54250;45.572;38.086;2023-03-01T15:25:52;4.90;;;2.63;;
67363;SDS011;54250;45.572;38.086;2023-03-01T15:28:26;9.77;;;4.00;;
67363;SDS011;54250;45.572;38.086;2023-03-01T15:31:02;9.20;;;3.30;;
67363;SDS011;54250;45.572;38.086;2023-03-01T15:33:48;6.13;;;2.45;;
67363;SDS011;54250;45.572;38.086;2023-03-01T15:47:55;11.77;;;2.88;;
67363;SDS011;54250;45.572;38.086;2023-03-01T15:50:24;27.30;;;4.05;;
67363;SDS011;54250;45.572;38.086;2023-03-01T15:52:55;10.20;;;3.83;;
67363;SDS011;54250;45.572;38.086;2023-03-01T15:55:27;8.18;;;3.50;;
67363;SDS011;54250;45.572;38.086;2023-03-01T15:58:17;4.90;;;1.65;;
67363;SDS011;54250;45.572;38.086;2023-03-01T16:00:45;5.78;;;3.92;;
67363;SDS011;54250;45.572;38.086;2023-03-01T16:03:14;5.32;;;3.38;;
67363;SDS011;54250;45.572;38.086;2023-03-01T16:05:42;8.55;;;4.32;;
67363;SDS011;54250;45.572;38.086;2023-03-01T16:08:08;4.68;;;2.55;;
67363;SDS011;54250;45.572;38.086;2023-03-01T16:10:34;8.10;;;4.43;;
67363;SDS011;54250;45.572;38.086;2023-03-01T16:13:01;14.13;;;3.92;;
67363;SDS011;54250;45.572;38.086;2023-03-01T16:15:31;4.35;;;2.75;;
67363;SDS011;54250;45.572;38.086;2023-03-01T16:18:02;10.60;;;5.70;;
67363;SDS011;54250;45.572;38.086;2023-03-01T16:20:28;3.80;;;2.40;;
67363;SDS011;54250;45.572;38.086;2023-03-01T16:22:57;7.20;;;4.50;;
67363;SDS011;54250;45.572;38.086;2023-03-01T16:25:25;7.43;;;2.95;;
67363;SDS011;54250;45.572;38.086;2023-03-01T16:27:51;6.32;;;4.38;;
67363;SDS011;54250;45.572;38.086;2023-03-01T16:30:18;3.42;;;2.10;;
67363;SDS011;54250;45.572;38.086;2023-03-01T16:32:47;4.22;;;3.15;;
67363;SDS011;54250;45.572;38.086;2023-03-01T16:35:15;7.85;;;3.58;;
67363;SDS011;54250;45.572;38.086;2023-03-01T16:37:43;4.03;;;2.03;;
67363;SDS011;54250;45.572;38.086;2023-03-01T16:40:17;5.32;;;3.05;;
67363;SDS011;54250;45.572;38.086;2023-03-01T16:42:43;7.47;;;2.15;;
67363;SDS011;54250;45.572;38.086;2023-03-01T16:45:09;3.75;;;2.70;;
67363;SDS011;54250;45.572;38.086;2023-03-01T16:47:36;5.50;;;3.20;;
67363;SDS011;54250;45.572;38.086;2023-03-01T16:50:02;5.82;;;2.38;;
67363;SDS011;54250;45.572;38.086;2023-03-01T16:52:29;8.20;;;4.68;;
67363;SDS011;54250;45.572;38.086;2023-03-01T16:54:56;11.38;;;4.70;;
67363;SDS011;54250;45.572;38.086;2023-03-01T16:57:24;4.25;;;2.88;;
67363;SDS011;54250;45.572;38.086;2023-03-01T16:59:53;6.82;;;3.10;;
67363;SDS011;54250;45.572;38.086;2023-03-01T17:02:19;5.60;;;3.95;;
67363;SDS011;54250;45.572;38.086;2023-03-01T17:04:54;7.00;;;4.07;;
67363;SDS011;54250;45.572;38.086;2023-03-01T17:07:21;5.03;;;3.67;;